MST,Max TemperatureF,Mean TemperatureF,Min TemperatureF,Max Dew PointF,MeanDew PointF,Min DewpointF,Max Humidity, Mean Humidity, Min Humidity, Max Sea Level PressureIn, Mean Sea Level PressureIn, Min Sea Level PressureIn, Max VisibilityMiles, Mean VisibilityMiles, Min VisibilityMiles, Max Wind SpeedMPH, Mean Wind SpeedMPH, Max Gust SpeedMPH,PrecipitationIn, CloudCover, Events, WindDirDegrees
2013-8-1,107,94,82,63,59,55,48,27,18,29.92,29.87,29.79,20,19,2,21,6,30,0.00,6,,116
2013-8-2,105,96,86,64,56,48,48,26,14,29.91,29.85,29.80,20,20,20,12,3,17,0.00,6,,166
2013-8-3,105,96,87,63,52,45,40,23,14,29.96,29.90,29.81,20,20,20,8,5,,0.00,3,,150
2013-8-4,105,97,89,45,36,27,16,11,8,29.96,29.90,29.82,20,20,20,8,4,,0.00,5,,168
2013-8-5,100,91,82,63,51,43,34,24,14,29.98,29.91,29.83,20,20,20,15,6,20,0.00,6,,173
2013-8-6,84,80,77,72,67,64,83,63,51,30.04,29.98,29.91,20,19,15,9,6,,0.00,8,Rain,115
2013-8-7,102,88,75,66,56,43,65,33,15,30.00,29.92,29.83,20,20,20,12,3,,0.00,1,,169
2013-8-8,105,90,75,55,39,28,39,17,7,29.92,29.85,29.77,20,19,10,12,4,21,0.00,1,,178
2013-8-9,107,90,73,48,38,30,38,15,8,29.88,29.82,29.76,20,20,20,9,4,,0.00,2,,176
2013-8-10,105,92,80,45,35,25,28,13,6,29.97,29.92,29.82,20,20,20,9,4,17,0.00,2,,112
2013-8-11,105,92,78,46,41,34,28,15,9,29.96,29.88,29.77,20,20,20,8,3,,0.00,1,,227
2013-8-12,107,92,78,57,48,27,33,21,6,29.89,29.84,29.78,20,20,20,13,5,21,0.00,1,,186
2013-8-13,105,90,75,43,30,21,31,11,5,29.97,29.89,29.81,20,20,20,12,5,17,0.00,2,,215
2013-8-14,109,96,84,48,42,32,22,14,9,29.93,29.85,29.76,20,20,20,12,6,,0.00,6,,215
2013-8-15,109,98,87,63,56,52,40,24,15,29.93,29.87,29.79,20,20,20,13,5,,0.00,5,,121
2013-8-16,111,99,87,57,53,46,35,20,12,29.92,29.85,29.78,20,20,20,7,3,,0.00,3,,97
2013-8-17,111,101,91,61,56,50,32,21,14,29.94,29.84,29.73,20,20,20,8,5,,0.00,3,,154
2013-8-18,109,96,84,66,57,48,55,26,13,29.91,29.84,29.77,20,20,20,12,6,,0.00,5,,135
2013-8-19,107,99,91,61,54,46,36,21,14,29.92,29.84,29.76,20,20,20,12,6,,0.00,6,,22
2013-8-20,109,98,86,57,52,46,33,20,12,29.88,29.81,29.73,20,20,20,15,4,17,0.00,2,,206
2013-8-21,100,94,89,63,59,55,40,30,22,29.94,29.88,29.81,20,20,20,7,3,,0.00,7,,133
2013-8-22,104,96,87,59,55,54,38,25,20,29.93,29.86,29.77,20,20,20,12,3,17,0.00,6,,238
2013-8-23,102,93,84,63,56,48,48,29,17,29.88,29.80,29.70,20,20,20,8,7,,0.00,6,,275
2013-8-24,96,86,77,70,64,61,78,47,30,29.96,29.89,29.80,20,20,20,16,10,,0.00,6,,300
2013-8-25,87,82,78,73,69,64,83,62,46,30.01,29.98,29.92,20,20,15,12,9,17,0.00,8,Rain,331
2013-8-26,98,89,80,70,66,64,70,45,32,29.95,29.89,29.80,20,18,3,25,4,38,0.00,6,Rain,104
2013-8-27,105,92,80,70,64,57,70,38,20,29.86,29.80,29.72,20,20,20,13,4,17,0.00,4,,176
2013-8-28,105,96,86,70,59,55,55,29,19,29.86,29.81,29.75,20,19,10,18,6,31,0.00,3,Rain,115
2013-8-29,96,87,78,73,71,68,83,58,41,30.05,30.00,29.95,20,20,20,18,4,25,0.00,5,,210
2013-8-30,98,89,80,75,70,64,84,55,32,30.05,29.99,29.92,20,20,20,23,4,30,0.00,6,,273
2013-8-31,100,91,82,73,68,61,74,46,27,29.99,29.91,29.81,20,20,20,9,3,,0.00,6,,293